»·PEaware :: N110AB L88-KSBP

N110AB :: L88-KSBP

FLIGHT INFORMATION

Flight Status: Arrived
Operator: Privately registered:
United States
More flights under this callsign
Pilot: Bai G. (26225)
Aircraft: CESSNA 172 SKYHAWK
(C172)
More flights by this aircraft type
Origin: L88 New Cuyama
United States
Destination: KSBP San Luis Co Regl
United States
More flights between these airports :: More routes between these airports
Route:
File this flight plan on PilotEdge
Remarks:
Altitude:
(Current/Filed)
7,500ft
Speed:
(Current/Filed)
100kts
Departed: 11-Sep-19 09:32 PM
Arrived: 11-Sep-19 10:11 PM
Distance/Time
Traveled:
50nm/0:38
Distance/Time
To Go:
Arrived

Flight Plot

Page will automatically refresh every two minutes.


Map Options




Map Legend


Flown Route
Filed Route
Departure Airport
Arrival Airport
Navaid (VOR, NDB)
Fix

Horizontal Profiles

Position Reports

Time Latitude Longitude Heading Altitude Ground
Speed
11-Sep-19 21:24 34.942854 -119.690285 204 2156ft 0kts
11-Sep-19 21:25 34.942853 -119.690285 204 2156ft 0kts
11-Sep-19 21:26 34.942853 -119.690285 204 2156ft 0kts
11-Sep-19 21:27 34.942775 -119.690352 258 2156ft 0kts
11-Sep-19 21:28 34.941986 -119.690561 117 2158ft 0kts
11-Sep-19 21:29 34.941986 -119.690561 117 2158ft 0kts
11-Sep-19 21:30 34.941986 -119.690561 117 2158ft 0kts
11-Sep-19 21:31 34.940108 -119.685886 117 2229ft 67kts
11-Sep-19 21:32 34.933534 -119.664304 106 3136ft 70kts
11-Sep-19 21:33 34.914637 -119.662361 191 3986ft 74kts
11-Sep-19 21:34 34.913519 -119.685343 285 4801ft 76kts
11-Sep-19 21:35 34.919194 -119.709767 287 5579ft 77kts
11-Sep-19 21:36 34.926130 -119.734015 291 6324ft 77kts
11-Sep-19 21:37 34.928264 -119.759494 264 7016ft 77kts
11-Sep-19 21:38 34.924421 -119.786335 255 7584ft 90kts
11-Sep-19 21:39 34.917275 -119.816491 248 7700ft 88kts
11-Sep-19 21:40 34.908248 -119.843939 262 7835ft 86kts
11-Sep-19 21:41 34.905817 -119.876151 270 7936ft 105kts
11-Sep-19 21:42 34.905399 -119.912624 266 7989ft 117kts
11-Sep-19 21:43 34.905756 -119.951259 270 8070ft 114kts
11-Sep-19 21:44 34.905452 -119.989875 270 7924ft 107kts
11-Sep-19 21:45 34.911254 -120.025886 283 7832ft 105kts
11-Sep-19 21:46 34.918957 -120.062355 281 7548ft 118kts
11-Sep-19 21:47 34.924677 -120.099276 280 7193ft 104kts
11-Sep-19 21:48 34.931640 -120.132219 285 7005ft 110kts
11-Sep-19 21:49 34.940464 -120.168877 285 7202ft 129kts
11-Sep-19 21:50 34.950059 -120.211392 286 6419ft 131kts
11-Sep-19 21:51 34.961694 -120.255451 291 5792ft 141kts
11-Sep-19 21:52 34.975731 -120.298682 290 5218ft 134kts
11-Sep-19 21:53 34.993133 -120.339875 306 4554ft 137kts
11-Sep-19 21:54 35.019386 -120.372248 316 4053ft 133kts
11-Sep-19 21:55 35.041390 -120.404968 301 4011ft 118kts
11-Sep-19 21:56 35.058935 -120.440046 299 3880ft 134kts
11-Sep-19 21:57 35.081169 -120.473578 316 4220ft 120kts
11-Sep-19 21:58 35.104313 -120.504996 313 4317ft 131kts
11-Sep-19 22:00 35.132848 -120.533590 325 4100ft 136kts
11-Sep-19 22:01 35.162160 -120.560989 319 4101ft 135kts
11-Sep-19 22:02 35.192760 -120.581121 341 3213ft 121kts
11-Sep-19 22:03 35.217438 -120.608922 310 1868ft 125kts
11-Sep-19 22:04 35.236883 -120.640527 304 309ft 108kts
11-Sep-19 22:05 35.241774 -120.664196 201 837ft 95kts
11-Sep-19 22:06 35.223190 -120.647016 111 1099ft 91kts
11-Sep-19 22:07 35.220467 -120.624100 355 1193ft 97kts
11-Sep-19 22:08 35.240896 -120.647360 305 237ft 77kts
11-Sep-19 22:09 35.236443 -120.660714 293 654ft 83kts
11-Sep-19 22:10 35.244365 -120.652260 126 534ft 92kts
11-Sep-19 22:11 35.236048 -120.638653 122 216ft 23kts
11-Sep-19 22:12 35.235034 -120.633163 36 216ft 0kts
11-Sep-19 22:13 35.235096 -120.633107 32 216ft 0kts
11-Sep-19 22:14 35.235098 -120.633105 30 216ft 0kts
11-Sep-19 22:15 35.235098 -120.633105 30 216ft 0kts
11-Sep-19 22:16 35.235098 -120.633105 30 216ft 0kts
11-Sep-19 22:17 35.235098 -120.633105 30 216ft 0kts

Navigation Log

Ident Type
Flight plan parsing failed, navigation log unavailable